Архив погоды в Карасуке

Метеограмма Карасук
Вторник, 14 Августа
Время местн. Темп Ветер Видим Явления Облачность нижн/средн/верх Атм. давл. Влжн Точка росы ВНГО R Сост. почвы Tg s
Напр Скр Прв ур.ст ур.м изм
19:00 +23° В 2 - 50 км - ясно 755 765 -0.5 35% +6.7° более 2.5 км 0 - - -
16:00 +22.4° В 2 - 50 км - переменная облачность 755 766 -0.5 34% +5.6° 1 км - - - -
13:00 +20.3° Ю,Ю-В 1 - 50 км - переменная облачность 756 766 -0.3 43% +7.2° 1 км - - - -
10:00 +16.8° В,Ю-В 2 - 50 км - ясно 756 767 +0.7 69% +11.1° более 2.5 км - - - -
07:00 +7.8° штиль 0 - 50 км - ясно 756 766 +0.8 93% +6.7° более 2.5 км 0 Влажная (без луж) - -
04:00 +8.1° штиль 0 - 50 км - ясно 755 765 +0.5 91% +6.8° более 2.5 км - - - -
01:00 +9.6° штиль 0 - 50 км - ясно 754 765 +0.8 90% +8° более 2.5 км - - - -
Понедельник, 13 Августа
Время местн. Темп Ветер Видим Явления Облачность нижн/средн/верх Атм. давл. Влжн Точка росы ВНГО R Сост. почвы Tg s
Напр Скр Прв ур.ст ур.м изм
22:00 +14° С-В 1 - 50 км - ясно 754 764 +1.3 71% +8.9° более 2.5 км - - - -
19:00 +19.3° С 3 - 50 км - переменная облачность 752 762 +0.8 46% +7.3° 1 км 0.3 - - -
16:00 +18.4° С 4 - 50 км - облачно с прояснениями 752 762 +1.4 55% +9.3° 600 м - - - -
13:00 +17° С 3 - 50 км небо без изменений {ливневые осадки} облачно с прояснениями 750 760 +1.3 75% +12.6° 600 м - - - -
10:00 +13.7° С 3 - 50 км ливневый дождь облачно 749 759 +1.8 93% +12.6° 200 м - - - -
07:00 +11.5° С-З 1 - 50 км - облачно 747 757 +1.9 94% +10.5° 600 м 0.4 Влажная (без луж) - -
04:00 +12.3° С,С-В 3 - 50 км - облачно 745 756 +1.4 93% +11.2° 600 м - - - -
01:00 +12.2° Ю,Ю-В 1 - 50 км небо без изменений {ливневые осадки} облачно 744 754 +1 93% +11.1° 600 м - - - -
Воскресенье, 12 Августа
Время местн. Темп Ветер Видим Явления Облачность нижн/средн/верх Атм. давл. Влжн Точка росы ВНГО R Сост. почвы Tg s
Напр Скр Прв ур.ст ур.м изм
22:00 +12.2° Ю-З 3 - 10 км слабый ливневый дождь облачно 743 753 +1.1 91% +10.8° 600 м - - - -
19:00 +12.4° Ю-З 4 - 50 км ливневый дождь облачно 742 752 +1.4 86% +10.1° 600 м 0.3 - - -
16:00 +13° З 5 - 50 км - облачно 740 750 +1.5 77% +9.1° 600 м - - - -
13:00 +12.7° З,Ю-З 6 - 50 км ливневый дождь облачно 739 749 +1.1 84% +10° 600 м - - - -
10:00 +13.1° З,Ю-З 5 - 50 км - преимущественно облачно 738 748 +1 83% +10.3° 600 м - - - -
07:00 +14.8° Ю-З 3 - 50 км небо без изменений {ливневые осадки} облачно 737 747 -0.7 90% +13.1° 600 м 0 Влажная (без луж) - -
04:00 +14.1° Ю,Ю-З 3 - 50 км - облачно 738 748 -1.2 76% +10° 600 м - - - -
01:00 +12° штиль 0 - 50 км - ясно 739 749 -0.8 85% +9.5° более 2.5 км - - - -
Суббота, 11 Августа
Время местн. Темп Ветер Видим Явления Облачность нижн/средн/верх Атм. давл. Влжн Точка росы ВНГО R Сост. почвы Tg s
Напр Скр Прв ур.ст ур.м изм
22:00 +16.2° З,Ю-З 2 - 50 км - переменная облачность 739 750 +0.2 68% +10.2° 600 м - - - -
19:00 +20.2° З 5 - 50 км - облачно с прояснениями 739 749 -0.2 54% +10.5° 600 м 4 - - -
16:00 +18.8° З 6 - 50 км - облачно с прояснениями 739 749 +0.2 65% +12.2° 600 м - - - -